createdAt,value
2022-09-13T00:01:03.542Z,25.80
2022-09-13T00:03:44.443Z,30.00
2022-09-13T00:06:18.763Z,28.50
2022-09-13T00:08:50.924Z,25.30
2022-09-13T00:11:24.964Z,23.90
2022-09-13T00:14:00.436Z,22.20
2022-09-13T00:16:32.398Z,24.60
2022-09-13T00:19:04.501Z,27.50
2022-09-13T00:21:36.877Z,22.70
2022-09-13T00:24:09.547Z,23.70
2022-09-13T00:26:41.209Z,26.00
2022-09-13T00:29:12.884Z,23.40
2022-09-13T00:31:44.817Z,29.20
2022-09-13T00:36:47.938Z,26.00
2022-09-13T00:39:19.625Z,26.40
2022-09-13T00:41:51.664Z,27.40
2022-09-13T00:44:55.117Z,28.40
2022-09-13T00:50:03.806Z,26.40
2022-09-13T00:52:38.644Z,23.50
2022-09-13T00:55:17.467Z,25.20
2022-09-13T00:57:50.242Z,22.90
2022-09-13T01:00:22.470Z,24.10
2022-09-13T01:02:59.156Z,22.30
2022-09-13T01:05:34.973Z,19.90
2022-09-13T01:08:12.672Z,24.30
2022-09-13T01:10:45.398Z,28.70
2022-09-13T01:13:20.605Z,25.50
2022-09-13T01:15:53.061Z,25.30
2022-09-13T01:18:25.266Z,21.40
2022-09-13T01:21:23.194Z,25.40
2022-09-13T01:24:29.795Z,27.90
2022-09-13T01:27:25.753Z,26.10
2022-09-13T01:30:13.831Z,24.10
2022-09-13T01:33:02.428Z,29.50
2022-09-13T01:35:48.150Z,24.40
2022-09-13T01:38:33.945Z,27.10
2022-09-13T01:41:14.693Z,24.60
2022-09-13T01:43:56.885Z,25.60
2022-09-13T01:46:39.313Z,24.70
2022-09-13T01:49:18.644Z,27.80
2022-09-13T01:51:57.491Z,26.00
2022-09-13T01:54:38.766Z,26.60
2022-09-13T01:57:18.626Z,27.10
2022-09-13T01:59:53.977Z,30.00
2022-09-13T02:02:32.514Z,28.20
2022-09-13T02:05:10.956Z,27.70
2022-09-13T02:07:45.882Z,25.90
2022-09-13T02:10:23.063Z,26.30
2022-09-13T02:12:59.057Z,32.80
2022-09-13T02:15:37.809Z,29.00
2022-09-13T02:18:14.302Z,28.10
2022-09-13T02:20:49.868Z,26.90
2022-09-13T02:23:25.170Z,28.10
2022-09-13T02:25:58.873Z,28.50
2022-09-13T02:28:35.240Z,25.70
2022-09-13T02:31:09.068Z,30.40
2022-09-13T02:33:46.242Z,30.30
2022-09-13T02:36:23.790Z,26.80
2022-09-13T02:38:59.677Z,30.10
2022-09-13T02:41:38.491Z,30.30
2022-09-13T02:44:15.056Z,31.30
2022-09-13T02:47:16.816Z,36.80
2022-09-13T02:50:00.769Z,34.30
2022-09-13T02:52:39.930Z,31.10
2022-09-13T02:55:21.210Z,31.20
2022-09-13T02:58:01.371Z,33.10
2022-09-13T03:00:33.384Z,32.90
2022-09-13T03:03:09.463Z,33.30
2022-09-13T03:05:41.616Z,35.10
2022-09-13T03:08:17.805Z,31.60
2022-09-13T03:11:00.151Z,34.30
2022-09-13T03:14:08.697Z,33.00
2022-09-13T03:16:53.396Z,31.30
2022-09-13T03:19:39.301Z,32.20
2022-09-13T03:22:29.085Z,32.60
2022-09-13T03:25:09.808Z,33.80
2022-09-13T03:27:52.358Z,42.80
2022-09-13T03:30:24.421Z,35.40
2022-09-13T03:33:05.353Z,32.90
2022-09-13T03:35:43.710Z,32.90
2022-09-13T03:38:18.336Z,33.70
2022-09-13T03:40:54.749Z,35.50
2022-09-13T03:43:35.538Z,38.10
2022-09-13T03:46:11.292Z,37.80
2022-09-13T03:48:45.027Z,37.80
2022-09-13T03:51:16.944Z,39.60
2022-09-13T03:53:56.392Z,39.40
2022-09-13T03:56:28.091Z,39.00
2022-09-13T03:58:59.937Z,38.50
2022-09-13T04:01:31.614Z,33.80
2022-09-13T04:04:03.607Z,38.00
2022-09-13T04:06:35.193Z,36.40
2022-09-13T04:09:06.854Z,38.30
2022-09-13T04:11:40.687Z,35.00
2022-09-13T04:14:12.349Z,37.80
2022-09-13T04:16:44.055Z,35.50
2022-09-13T04:19:15.681Z,32.50
2022-09-13T04:21:50.450Z,32.50
2022-09-13T04:24:25.425Z,35.10
2022-09-13T04:26:57.868Z,32.60
2022-09-13T04:29:31.729Z,30.90
2022-09-13T04:32:04.128Z,37.10
2022-09-13T04:34:35.888Z,33.50
2022-09-13T04:37:07.574Z,35.60
2022-09-13T04:39:39.509Z,28.20
2022-09-13T04:42:12.197Z,37.40
2022-09-13T04:44:44.987Z,33.10
2022-09-13T04:47:17.143Z,35.10
2022-09-13T04:49:49.492Z,34.40
2022-09-13T04:52:21.284Z,34.70
2022-09-13T04:54:52.908Z,39.60
2022-09-13T04:57:24.938Z,35.50
2022-09-13T04:59:56.624Z,36.60
2022-09-13T05:02:28.335Z,32.90
2022-09-13T05:05:00.159Z,30.50
2022-09-13T05:07:31.813Z,36.00
2022-09-13T05:10:03.601Z,37.40
2022-09-13T05:12:35.274Z,37.00
2022-09-13T05:15:09.532Z,35.40
2022-09-13T05:17:41.489Z,36.10
2022-09-13T05:20:13.896Z,35.70
2022-09-13T05:22:45.620Z,32.90
2022-09-13T05:25:17.902Z,34.90
2022-09-13T05:27:49.712Z,39.40
2022-09-13T05:30:21.672Z,31.80
2022-09-13T05:32:53.426Z,36.10
2022-09-13T05:35:27.292Z,37.80
2022-09-13T05:37:59.065Z,34.60
2022-09-13T05:40:31.233Z,38.70
2022-09-13T05:43:03.472Z,38.10
2022-09-13T05:45:35.415Z,30.00
2022-09-13T05:48:07.267Z,43.30
2022-09-13T05:50:58.726Z,28.30
2022-09-13T05:53:31.432Z,31.10
2022-09-13T05:56:03.915Z,37.90
2022-09-13T06:01:07.160Z,31.50
2022-09-13T06:03:39.460Z,30.90
2022-09-13T06:08:45.981Z,28.50
2022-09-13T06:11:18.425Z,30.10
2022-09-13T06:13:50.088Z,32.30
2022-09-13T06:16:23.422Z,30.20
2022-09-13T06:18:55.158Z,30.40
2022-09-13T06:21:29.360Z,27.30
2022-09-13T06:24:01.614Z,31.50
2022-09-13T06:26:33.629Z,26.50
2022-09-13T06:29:05.689Z,29.20
2022-09-13T06:31:39.061Z,29.20
2022-09-13T06:34:14.072Z,29.50
2022-09-13T06:36:46.389Z,27.00
2022-09-13T06:39:18.380Z,30.40
2022-09-13T06:41:50.074Z,28.40
2022-09-13T06:44:25.727Z,27.30
2022-09-13T06:46:57.323Z,26.60
2022-09-13T06:49:31.462Z,26.60
2022-09-13T06:52:03.458Z,37.90
2022-09-13T06:54:34.881Z,22.90
2022-09-13T06:57:06.982Z,24.80
2022-09-13T06:59:38.835Z,26.40
2022-09-13T07:02:11.932Z,23.40
2022-09-13T07:04:43.860Z,24.70
2022-09-13T07:07:15.645Z,24.10
2022-09-13T07:09:48.852Z,27.70
2022-09-13T07:12:20.886Z,36.20
2022-09-13T07:14:52.682Z,19.50
2022-09-13T07:17:25.313Z,22.00
2022-09-13T07:19:59.263Z,30.20
2022-09-13T07:22:31.141Z,23.40
2022-09-13T07:25:03.265Z,21.20
2022-09-13T07:27:34.989Z,20.50
2022-09-13T07:30:08.249Z,26.20
2022-09-13T07:32:39.898Z,19.80
2022-09-13T07:35:11.708Z,24.30
2022-09-13T07:37:46.728Z,24.80
2022-09-13T07:40:20.224Z,19.80
2022-09-13T07:42:51.849Z,22.50
2022-09-13T07:45:24.119Z,20.30
2022-09-13T07:47:56.402Z,23.00
2022-09-13T07:50:28.865Z,20.00
2022-09-13T07:53:01.083Z,22.80
2022-09-13T07:55:33.396Z,19.00
2022-09-13T07:58:05.061Z,20.70
2022-09-13T08:00:36.669Z,18.50
2022-09-13T08:03:08.727Z,20.00
2022-09-13T08:05:42.942Z,19.20
2022-09-13T08:08:15.042Z,18.30
2022-09-13T08:10:49.498Z,16.10
2022-09-13T08:13:21.736Z,21.30
2022-09-13T08:15:54.106Z,16.50
2022-09-13T08:18:25.956Z,19.30
2022-09-13T08:21:00.269Z,16.10
2022-09-13T08:23:34.153Z,17.40
2022-09-13T08:26:08.005Z,17.30
2022-09-13T08:28:41.143Z,16.60
2022-09-13T08:31:16.897Z,15.50
2022-09-13T08:33:49.627Z,17.30
2022-09-13T08:36:23.901Z,16.60
2022-09-13T08:38:57.769Z,18.80
2022-09-13T08:41:56.079Z,15.80
2022-09-13T08:44:31.298Z,14.10
2022-09-13T08:47:33.900Z,14.70
2022-09-13T08:50:15.591Z,14.90
2022-09-13T08:53:00.352Z,17.20
2022-09-13T08:55:41.873Z,20.70
2022-09-13T08:58:29.416Z,17.60
2022-09-13T09:01:08.507Z,16.10
2022-09-13T09:03:47.266Z,18.60
2022-09-13T09:06:20.997Z,20.30
2022-09-13T09:08:58.040Z,16.50
2022-09-13T09:11:37.904Z,16.10
2022-09-13T09:14:16.290Z,16.30
2022-09-13T09:16:53.557Z,13.40
2022-09-13T09:19:34.354Z,13.20
2022-09-13T09:22:14.669Z,11.80
2022-09-13T09:24:50.197Z,13.10
2022-09-13T09:27:23.204Z,12.20
2022-09-13T09:29:58.991Z,11.40
2022-09-13T09:32:59.256Z,13.10
2022-09-13T09:35:46.128Z,14.90
2022-09-13T09:38:32.621Z,11.60
2022-09-13T09:41:11.959Z,12.80
2022-09-13T09:43:47.978Z,14.20
2022-09-13T09:46:27.296Z,13.30
2022-09-13T09:49:25.899Z,12.70
2022-09-13T09:51:58.923Z,13.00
2022-09-13T09:54:35.030Z,14.00
2022-09-13T09:57:08.932Z,17.40
2022-09-13T09:59:40.731Z,14.10
2022-09-13T10:02:20.558Z,14.80
2022-09-13T10:05:02.517Z,17.80
2022-09-13T10:07:35.899Z,15.20
2022-09-13T10:10:21.023Z,14.10
2022-09-13T10:12:57.153Z,19.00
2022-09-13T10:15:34.748Z,18.00
2022-09-13T10:18:39.996Z,20.60
2022-09-13T10:21:21.381Z,15.60
2022-09-13T10:24:13.778Z,14.60
2022-09-13T10:26:45.741Z,12.90
2022-09-13T10:29:19.468Z,17.00
2022-09-13T10:31:55.265Z,15.60
2022-09-13T10:34:31.019Z,13.00
2022-09-13T10:37:05.496Z,14.90
2022-09-13T10:39:39.156Z,15.50
2022-09-13T10:42:13.098Z,17.70
2022-09-13T10:44:52.892Z,14.30
2022-09-13T10:47:29.830Z,14.10
2022-09-13T10:50:19.795Z,15.10
2022-09-13T10:52:53.427Z,17.50
2022-09-13T10:55:42.570Z,18.10
2022-09-13T10:58:20.162Z,13.40
2022-09-13T11:01:24.515Z,15.30
2022-09-13T11:04:24.866Z,15.00
2022-09-13T11:07:03.859Z,17.50
2022-09-13T11:09:42.626Z,13.40
2022-09-13T11:12:24.958Z,12.90
2022-09-13T11:15:08.920Z,12.70
2022-09-13T11:18:06.384Z,14.00
2022-09-13T11:20:46.686Z,13.00
2022-09-13T11:23:43.316Z,16.10
2022-09-13T11:26:42.001Z,15.80
2022-09-13T11:29:27.291Z,17.00
2022-09-13T11:32:09.362Z,16.20
2022-09-13T11:34:53.013Z,13.60
2022-09-13T11:37:45.951Z,19.70
2022-09-13T11:40:33.930Z,17.80
2022-09-13T11:43:28.187Z,17.90
2022-09-13T11:46:13.134Z,15.40
2022-09-13T11:49:10.259Z,12.90
2022-09-13T11:51:56.090Z,15.50
2022-09-13T11:54:40.717Z,15.20
2022-09-13T11:57:16.193Z,16.20
2022-09-13T11:59:52.772Z,20.10
2022-09-13T12:02:35.982Z,21.30
2022-09-13T12:05:22.566Z,17.20
2022-09-13T12:08:02.961Z,15.40
2022-09-13T12:10:40.042Z,18.30
2022-09-13T12:13:17.016Z,14.50
2022-09-13T12:15:52.490Z,16.20
2022-09-13T12:18:29.503Z,15.60
2022-09-13T12:21:09.342Z,15.10
2022-09-13T12:23:52.934Z,17.00
2022-09-13T12:26:29.620Z,15.70
2022-09-13T12:29:07.660Z,17.60
2022-09-13T12:31:39.335Z,17.80
2022-09-13T12:34:18.288Z,13.90
2022-09-13T12:37:05.154Z,17.80
2022-09-13T12:40:12.278Z,16.80
2022-09-13T12:43:11.358Z,17.60
2022-09-13T12:46:01.750Z,14.40
2022-09-13T12:49:13.903Z,17.00
2022-09-13T12:52:03.557Z,17.30
2022-09-13T12:54:55.345Z,15.10
2022-09-13T12:57:37.141Z,15.80
2022-09-13T13:00:24.585Z,18.10
2022-09-13T13:03:11.924Z,14.70
2022-09-13T13:05:47.341Z,14.10
2022-09-13T13:08:31.102Z,13.60
2022-09-13T13:11:09.032Z,14.70
2022-09-13T13:13:47.599Z,13.50
2022-09-13T13:16:29.525Z,11.90
2022-09-13T13:19:01.928Z,14.40
2022-09-13T13:21:38.041Z,16.50
2022-09-13T13:24:49.044Z,23.90
2022-09-13T13:27:48.705Z,15.10
2022-09-13T13:30:52.394Z,11.50
2022-09-13T13:36:19.297Z,11.20
2022-09-13T13:38:55.798Z,12.00
2022-09-13T13:41:45.068Z,11.00
2022-09-13T13:44:52.026Z,15.80
2022-09-13T13:47:54.548Z,11.30
2022-09-13T13:50:26.376Z,12.80
2022-09-13T13:53:06.148Z,11.10
2022-09-13T13:55:46.889Z,11.30
2022-09-13T13:58:46.001Z,10.90
2022-09-13T14:01:22.613Z,10.40
2022-09-13T14:04:08.321Z,10.60
2022-09-13T14:06:49.900Z,10.10
2022-09-13T14:09:38.169Z,9.00
2022-09-13T14:12:25.858Z,10.70
2022-09-13T14:15:22.561Z,10.40
2022-09-13T14:18:28.777Z,11.50
2022-09-13T14:21:05.536Z,15.40
2022-09-13T14:23:37.495Z,12.40
2022-09-13T14:26:11.786Z,11.00
2022-09-13T14:28:44.711Z,11.20
2022-09-13T14:31:21.508Z,15.60
2022-09-13T14:33:53.934Z,14.90
2022-09-13T14:36:27.596Z,14.50
2022-09-13T14:39:01.732Z,11.90
2022-09-13T14:41:37.971Z,11.60
2022-09-13T14:44:28.341Z,12.40
2022-09-13T14:47:18.367Z,15.80
2022-09-13T14:49:53.627Z,14.00
2022-09-13T14:52:31.324Z,15.50
2022-09-13T14:55:09.848Z,14.30
2022-09-13T14:57:48.665Z,16.50
2022-09-13T15:00:25.543Z,12.30
2022-09-13T15:02:59.966Z,15.50
2022-09-13T15:05:35.016Z,14.00
2022-09-13T15:08:42.440Z,12.20
2022-09-13T15:11:28.062Z,12.00
2022-09-13T15:14:25.745Z,11.90
2022-09-13T15:17:07.574Z,12.30
2022-09-13T15:19:42.402Z,15.00
2022-09-13T15:22:25.324Z,15.90
2022-09-13T15:25:01.306Z,11.50
2022-09-13T15:27:45.134Z,14.60
2022-09-13T15:30:23.913Z,15.40
2022-09-13T15:33:17.674Z,13.80
2022-09-13T15:35:50.353Z,14.10
2022-09-13T15:38:27.153Z,13.00
2022-09-13T15:41:14.915Z,14.90
2022-09-13T15:43:49.005Z,13.30
2022-09-13T15:46:21.254Z,15.00
2022-09-13T15:48:56.442Z,15.00
2022-09-13T15:51:28.885Z,13.80
2022-09-13T15:54:00.660Z,12.70
2022-09-13T15:56:37.889Z,19.20
2022-09-13T15:59:10.117Z,14.70
2022-09-13T16:01:41.863Z,16.00
2022-09-13T16:04:14.093Z,13.10
2022-09-13T16:06:46.707Z,15.20
2022-09-13T16:09:22.204Z,14.40
2022-09-13T16:11:54.813Z,15.00
2022-09-13T16:16:58.343Z,19.00
2022-09-13T16:19:29.956Z,17.50
2022-09-13T16:22:01.611Z,21.20
2022-09-13T16:24:33.249Z,19.00
2022-09-13T16:27:05.447Z,20.40
2022-09-13T16:29:37.172Z,22.00
2022-09-13T16:32:09.079Z,24.00
2022-09-13T16:34:41.465Z,21.50
2022-09-13T16:37:16.714Z,14.60
2022-09-13T16:39:49.052Z,23.60
2022-09-13T16:42:20.678Z,23.90
2022-09-13T16:44:52.446Z,21.60
2022-09-13T16:47:24.132Z,23.10
2022-09-13T16:49:55.947Z,26.80
2022-09-13T16:52:27.991Z,25.20
2022-09-13T16:55:00.029Z,27.80
2022-09-13T16:57:32.103Z,23.60
2022-09-13T17:00:08.501Z,24.30
2022-09-13T17:02:40.421Z,22.00
2022-09-13T17:05:12.745Z,22.80
2022-09-13T17:07:44.485Z,21.50
2022-09-13T17:10:16.168Z,24.60
2022-09-13T17:12:48.216Z,24.80
2022-09-13T17:15:20.221Z,25.40
2022-09-13T17:17:52.001Z,28.90
2022-09-13T17:20:23.870Z,26.40
2022-09-13T17:22:55.559Z,22.10
2022-09-13T17:25:27.261Z,27.60
2022-09-13T17:27:59.013Z,25.00
2022-09-13T17:30:31.052Z,27.80
2022-09-13T17:33:04.267Z,23.70
2022-09-13T17:35:36.686Z,26.20
2022-09-13T17:38:08.561Z,28.00
2022-09-13T17:40:41.501Z,35.20
2022-09-13T17:43:14.168Z,31.30
2022-09-13T17:48:17.700Z,27.10
2022-09-13T17:50:49.533Z,29.10
2022-09-13T17:53:21.388Z,25.50
2022-09-13T17:55:54.220Z,32.80
2022-09-13T17:58:28.238Z,31.50
2022-09-13T18:01:08.787Z,28.30
2022-09-13T18:03:40.746Z,35.40
2022-09-13T18:06:14.492Z,41.10
2022-09-13T18:08:46.895Z,36.00
2022-09-13T18:11:22.342Z,36.30
2022-09-13T18:13:54.847Z,37.50
2022-09-13T18:16:28.473Z,41.50
2022-09-13T18:19:03.526Z,36.40
2022-09-13T18:21:35.711Z,39.10
2022-09-13T18:24:07.986Z,37.90
2022-09-13T18:26:39.662Z,38.40
2022-09-13T18:29:14.944Z,39.70
2022-09-13T18:31:47.059Z,32.80
2022-09-13T18:34:19.329Z,36.00
2022-09-13T18:39:23.717Z,37.90
2022-09-13T18:41:56.214Z,39.90
2022-09-13T18:44:30.435Z,35.40
2022-09-13T18:47:04.888Z,36.30
2022-09-13T18:49:37.332Z,39.60
2022-09-13T18:52:11.222Z,35.80
2022-09-13T18:54:43.473Z,39.40
2022-09-13T18:57:15.353Z,45.20
2022-09-13T18:59:47.743Z,40.70
2022-09-13T19:02:20.040Z,36.90
2022-09-13T19:04:52.374Z,37.40
2022-09-13T19:07:24.293Z,41.90
2022-09-13T19:09:56.460Z,37.20
2022-09-13T19:12:28.575Z,35.90
2022-09-13T19:15:00.928Z,37.90
2022-09-13T19:20:04.280Z,38.90
2022-09-13T19:22:36.446Z,40.90
2022-09-13T19:25:09.472Z,36.90
2022-09-13T19:27:41.328Z,36.80
2022-09-13T19:30:14.684Z,40.90
2022-09-13T19:32:46.465Z,39.10
2022-09-13T19:35:18.477Z,44.70
2022-09-13T19:37:50.237Z,33.80
2022-09-13T19:40:23.350Z,47.50
2022-09-13T19:42:55.146Z,45.80
2022-09-13T19:45:27.220Z,48.10
2022-09-13T19:48:37.225Z,47.40
2022-09-13T19:50:51.376Z,45.60
2022-09-13T19:53:35.516Z,40.30
2022-09-13T19:56:17.513Z,46.80
2022-09-13T19:58:49.997Z,49.60
2022-09-13T20:01:24.560Z,48.80
2022-09-13T20:03:58.271Z,46.00
2022-09-13T20:06:34.628Z,44.90
2022-09-13T20:09:08.168Z,45.90
2022-09-13T20:11:42.642Z,46.60
2022-09-13T20:14:17.387Z,47.10
2022-09-13T20:16:49.571Z,45.70
2022-09-13T20:19:40.641Z,42.40
2022-09-13T20:22:16.549Z,48.70
2022-09-13T20:24:48.937Z,48.00
2022-09-13T20:27:21.085Z,45.00
2022-09-13T20:29:52.968Z,50.40
2022-09-13T20:32:24.749Z,48.80
2022-09-13T20:34:56.387Z,42.10
2022-09-13T20:37:28.046Z,43.70
2022-09-13T20:40:03.197Z,40.10
2022-09-13T20:42:35.751Z,45.00
2022-09-13T20:45:09.002Z,46.40
2022-09-13T20:47:40.761Z,48.00
2022-09-13T20:50:13.383Z,46.10
2022-09-13T20:52:45.128Z,42.60
2022-09-13T20:55:17.225Z,44.80
2022-09-13T20:57:49.158Z,42.60
2022-09-13T21:00:21.105Z,44.40
2022-09-13T21:02:53.191Z,42.00
2022-09-13T21:05:24.894Z,45.20
2022-09-13T21:08:14.346Z,40.00
2022-09-13T21:10:56.482Z,42.90
2022-09-13T21:13:28.110Z,49.80
2022-09-13T21:16:05.209Z,41.80
2022-09-13T21:18:37.496Z,43.50
2022-09-13T21:21:10.324Z,44.50
2022-09-13T21:26:16.342Z,41.20
2022-09-13T21:28:48.452Z,40.50
2022-09-13T21:31:24.999Z,45.10
2022-09-13T21:33:58.722Z,41.50
2022-09-13T21:36:31.660Z,41.20
2022-09-13T21:39:04.569Z,44.90
2022-09-13T21:44:07.246Z,38.30
2022-09-13T21:46:40.887Z,39.30
2022-09-13T21:49:14.344Z,40.70
2022-09-13T21:51:47.635Z,39.70
2022-09-13T21:54:20.449Z,38.30
2022-09-13T21:56:54.742Z,42.80
2022-09-13T21:59:26.627Z,37.30
2022-09-13T22:01:58.551Z,38.40
2022-09-13T22:04:30.325Z,39.20
2022-09-13T22:07:01.985Z,28.70
2022-09-13T22:09:33.601Z,40.50
2022-09-13T22:12:05.532Z,43.60
2022-09-13T22:14:37.255Z,39.40
2022-09-13T22:17:08.940Z,38.60
2022-09-13T22:19:40.785Z,40.70
2022-09-13T22:22:12.531Z,37.70
2022-09-13T22:24:46.057Z,39.30
2022-09-13T22:27:17.868Z,40.20
2022-09-13T22:29:49.482Z,40.70
2022-09-13T22:32:23.315Z,36.10
2022-09-13T22:34:57.837Z,36.70
2022-09-13T22:37:29.659Z,36.20
2022-09-13T22:40:01.981Z,37.40
2022-09-13T22:42:33.662Z,36.80
2022-09-13T22:45:06.009Z,41.50
2022-09-13T22:47:37.738Z,39.90
2022-09-13T22:50:10.385Z,36.50
2022-09-13T22:52:41.942Z,37.70
2022-09-13T22:55:13.504Z,40.50
2022-09-13T22:57:45.117Z,36.50
2022-09-13T23:00:17.942Z,37.40
2022-09-13T23:02:49.596Z,34.70
2022-09-13T23:05:21.317Z,39.80
2022-09-13T23:07:52.980Z,36.90
2022-09-13T23:10:24.605Z,38.50
2022-09-13T23:12:57.695Z,34.10
2022-09-13T23:15:29.313Z,35.80
2022-09-13T23:18:01.097Z,38.20
2022-09-13T23:20:32.955Z,32.70
2022-09-13T23:23:05.186Z,39.70
2022-09-13T23:25:36.820Z,34.50
2022-09-13T23:28:09.040Z,32.90
2022-09-13T23:30:40.661Z,37.50
2022-09-13T23:33:12.739Z,36.30
2022-09-13T23:35:45.803Z,34.40
2022-09-13T23:38:17.662Z,39.30
2022-09-13T23:40:49.298Z,37.10
2022-09-13T23:43:20.813Z,33.60
2022-09-13T23:45:52.467Z,37.10
2022-09-13T23:48:24.657Z,40.40
2022-09-13T23:51:04.649Z,35.80
2022-09-13T23:53:37.578Z,36.50
2022-09-13T23:56:09.847Z,34.90
2022-09-13T23:58:42.097Z,35.70
